Time;durP1;ratioP1;P1;durP2;ratioP2;P2;SDS_P1;SDS_P2;PMS_P1;PMS_P2;Temp;Humidity;BMP_temperature;BMP_pressure;BME280_temperature;BME280_humidity;BME280_pressure;Samples;Min_cycle;Max_cycle;Signal;HPM_P1;HPM_P2
2023/06/14 00:01:53;;;;;;;0.73;0.73;;;18.00;99.90;;;;;;5021787;28;20450;-81
2023/06/14 00:04:21;;;;;;;0.77;0.77;;;18.00;99.90;;;;;;5020209;28;20814;-83
2023/06/14 00:06:50;;;;;;;0.50;0.40;;;17.90;99.90;;;;;;5019639;28;20451;-83
2023/06/14 00:09:17;;;;;;;0.53;0.50;;;17.90;99.90;;;;;;5019864;28;20529;-83
2023/06/14 00:11:45;;;;;;;0.50;0.40;;;17.90;99.90;;;;;;5019859;28;20454;-80
2023/06/14 00:14:11;;;;;;;1.63;1.03;;;17.90;99.90;;;;;;5020089;28;20443;-83
2023/06/14 00:16:42;;;;;;;0.50;0.40;;;17.90;99.90;;;;;;5027371;28;20442;-83
2023/06/14 00:19:10;;;;;;;0.50;0.40;;;17.90;99.90;;;;;;5019815;28;20996;-83
2023/06/14 00:21:37;;;;;;;2.10;0.50;;;17.90;99.90;;;;;;5019703;28;20482;-83
2023/06/14 00:24:05;;;;;;;1.33;0.80;;;17.80;99.90;;;;;;5019376;28;20451;-84
2023/06/14 00:26:32;;;;;;;0.50;0.40;;;17.80;99.90;;;;;;5017419;28;20540;-82
2023/06/14 00:28:59;;;;;;;0.50;0.37;;;17.80;99.90;;;;;;5039539;28;20466;-83
2023/06/14 00:31:25;;;;;;;0.50;0.40;;;17.80;99.90;;;;;;5024590;28;20450;-83
2023/06/14 00:33:54;;;;;;;0.50;0.40;;;17.70;99.90;;;;;;5027751;28;20528;-83
2023/06/14 00:36:21;;;;;;;0.50;0.50;;;17.70;99.90;;;;;;5019561;28;20538;-84
2023/06/14 00:38:47;;;;;;;0.60;0.60;;;17.70;99.90;;;;;;5019934;28;20480;-83
2023/06/14 00:41:14;;;;;;;0.50;0.40;;;17.70;99.90;;;;;;5022892;28;20557;-82
2023/06/14 00:43:41;;;;;;;0.73;0.70;;;17.70;99.90;;;;;;5023220;28;20445;-83
2023/06/14 00:46:08;;;;;;;0.50;0.40;;;17.80;99.90;;;;;;5019515;28;20931;-82
2023/06/14 00:48:37;;;;;;;0.60;0.60;;;17.80;99.90;;;;;;5026474;28;20438;-83
2023/06/14 00:51:05;;;;;;;0.50;0.50;;;17.80;99.90;;;;;;5020319;28;20505;-82
2023/06/14 00:53:35;;;;;;;0.83;0.50;;;17.90;99.90;;;;;;5026041;28;20460;-83
2023/06/14 00:56:02;;;;;;;0.50;0.40;;;17.90;99.90;;;;;;5015003;28;20453;-83
2023/06/14 00:58:29;;;;;;;0.50;0.37;;;17.90;99.90;;;;;;5022748;28;20449;-83
2023/06/14 01:00:57;;;;;;;0.60;0.53;;;17.90;99.90;;;;;;5022661;28;20489;-83
2023/06/14 01:03:25;;;;;;;0.50;0.40;;;17.90;99.90;;;;;;5022808;28;20507;-83
2023/06/14 01:06:02;;;;;;;0.50;0.33;;;17.90;99.90;;;;;;5021875;28;20508;-81
2023/06/14 01:08:45;;;;;;;0.50;0.40;;;17.80;99.90;;;;;;5019137;28;20478;-83
2023/06/14 01:11:17;;;;;;;0.50;0.40;;;17.80;99.90;;;;;;5003392;28;20443;-82
2023/06/14 01:13:46;;;;;;;0.50;0.30;;;17.80;99.90;;;;;;5027292;28;20953;-83
2023/06/14 01:16:15;;;;;;;0.60;0.60;;;17.70;99.90;;;;;;5011387;28;20464;-83
2023/06/14 01:18:47;;;;;;;0.50;0.40;;;17.80;99.90;;;;;;5019155;28;20451;-82
2023/06/14 01:21:22;;;;;;;0.50;0.40;;;17.70;99.90;;;;;;5019095;28;20479;-82
2023/06/14 01:23:52;;;;;;;0.50;0.40;;;17.70;99.90;;;;;;5019337;28;20457;-81
2023/06/14 01:26:20;;;;;;;0.60;0.50;;;17.60;99.90;;;;;;5019235;28;20542;-83
2023/06/14 01:28:49;;;;;;;0.50;0.30;;;17.60;99.90;;;;;;5019295;28;20446;-83
2023/06/14 01:31:19;;;;;;;0.50;0.40;;;17.60;99.90;;;;;;5011494;28;20446;-83
2023/06/14 01:33:47;;;;;;;0.50;0.30;;;17.50;99.90;;;;;;5019203;28;20493;-82
2023/06/14 01:36:15;;;;;;;0.53;0.50;;;17.50;99.90;;;;;;5019268;28;21041;-83
2023/06/14 01:38:44;;;;;;;0.50;0.40;;;17.50;99.90;;;;;;5021499;28;20930;-82
2023/06/14 01:41:13;;;;;;;0.50;0.40;;;17.40;99.90;;;;;;5025787;28;20899;-83
2023/06/14 01:43:42;;;;;;;5.50;2.30;;;17.30;99.90;;;;;;5026261;28;20473;-84
2023/06/14 01:46:10;;;;;;;0.50;0.40;;;17.30;99.90;;;;;;5026374;28;20443;-80
2023/06/14 01:48:37;;;;;;;0.50;0.30;;;17.20;99.90;;;;;;5043647;28;20454;-84
2023/06/14 01:51:04;;;;;;;1.73;1.63;;;17.20;99.90;;;;;;5045615;28;20514;-83
2023/06/14 01:53:31;;;;;;;0.60;0.57;;;17.20;99.90;;;;;;5047228;28;20422;-83
2023/06/14 01:55:58;;;;;;;0.50;0.40;;;17.10;99.90;;;;;;5044796;28;20465;-83
2023/06/14 01:58:27;;;;;;;0.50;0.40;;;17.10;99.90;;;;;;5022443;28;20450;-83
2023/06/14 02:00:55;;;;;;;0.50;0.30;;;17.10;99.90;;;;;;5022893;28;20482;-83
2023/06/14 02:03:23;;;;;;;0.50;0.40;;;17.00;99.90;;;;;;5025695;28;20438;-83
2023/06/14 02:05:50;;;;;;;0.50;0.40;;;17.00;99.90;;;;;;5025518;28;20548;-81
2023/06/14 02:08:16;;;;;;;0.50;0.30;;;17.00;99.90;;;;;;5022321;28;20481;-83
2023/06/14 02:10:43;;;;;;;0.57;0.53;;;17.00;99.90;;;;;;5022046;28;20503;-82
2023/06/14 02:13:10;;;;;;;0.70;0.50;;;17.00;99.90;;;;;;5030345;28;20438;-83
2023/06/14 02:15:38;;;;;;;0.50;0.40;;;17.00;99.90;;;;;;5022317;28;20447;-82
2023/06/14 02:18:06;;;;;;;1.10;1.10;;;17.00;99.90;;;;;;5024114;28;20479;-83
2023/06/14 02:20:33;;;;;;;0.50;0.40;;;16.90;99.90;;;;;;5025298;28;20577;-83
2023/06/14 02:22:59;;;;;;;0.60;0.50;;;16.90;99.90;;;;;;5024010;28;20821;-83
2023/06/14 02:25:27;;;;;;;1.13;0.50;;;16.90;99.90;;;;;;5022063;28;20894;-82
2023/06/14 02:27:54;;;;;;;0.50;0.40;;;16.90;99.90;;;;;;5022095;28;20890;-81
2023/06/14 02:30:21;;;;;;;0.50;0.30;;;16.90;99.90;;;;;;5024786;28;20877;-83
2023/06/14 02:32:51;;;;;;;0.50;0.30;;;16.90;99.90;;;;;;5042227;28;20471;-81
2023/06/14 02:35:17;;;;;;;0.70;0.63;;;16.80;99.90;;;;;;5018868;28;20574;-82
2023/06/14 02:37:44;;;;;;;0.50;0.40;;;16.80;99.90;;;;;;5030253;28;20446;-82
2023/06/14 02:40:12;;;;;;;0.50;0.40;;;16.70;99.90;;;;;;5023205;28;20474;-83
2023/06/14 02:42:39;;;;;;;0.50;0.30;;;16.70;99.90;;;;;;5029286;28;20561;-82
2023/06/14 02:45:07;;;;;;;0.50;0.40;;;16.70;99.90;;;;;;5023895;28;20448;-83
2023/06/14 02:47:34;;;;;;;0.50;0.30;;;16.60;99.90;;;;;;5028559;28;20450;-82
2023/06/14 02:50:02;;;;;;;1.07;0.83;;;16.60;99.90;;;;;;5015045;28;20455;-83
2023/06/14 02:52:29;;;;;;;1.23;1.23;;;16.60;99.90;;;;;;5022706;28;20439;-83
2023/06/14 02:54:56;;;;;;;0.67;0.67;;;16.60;99.90;;;;;;5024069;28;20446;-83
2023/06/14 02:57:23;;;;;;;0.50;0.30;;;16.60;99.90;;;;;;5025884;28;20532;-83
2023/06/14 02:59:51;;;;;;;0.50;0.40;;;16.50;99.90;;;;;;5026433;28;20484;-82
2023/06/14 03:02:18;;;;;;;0.50;0.40;;;16.50;99.90;;;;;;5026565;28;20477;-83
2023/06/14 03:04:47;;;;;;;0.60;0.53;;;16.50;99.90;;;;;;5045302;28;20452;-82
2023/06/14 03:07:19;;;;;;;0.50;0.40;;;16.50;99.90;;;;;;5040706;28;20446;-81
2023/06/14 03:09:46;;;;;;;0.50;0.40;;;16.50;99.90;;;;;;5029582;28;20874;-81
2023/06/14 03:12:14;;;;;;;0.60;0.50;;;16.40;99.90;;;;;;5022271;28;20943;-82
2023/06/14 03:14:41;;;;;;;0.50;0.40;;;16.40;99.90;;;;;;5028137;28;20465;-81
2023/06/14 03:17:10;;;;;;;0.50;0.40;;;16.40;99.90;;;;;;5024489;28;20977;-82
2023/06/14 03:19:37;;;;;;;0.57;0.50;;;16.40;99.90;;;;;;5024518;28;21033;-82
2023/06/14 03:22:04;;;;;;;0.50;0.40;;;16.30;99.90;;;;;;5023388;28;20549;-79
2023/06/14 03:24:36;;;;;;;0.50;0.30;;;16.30;99.90;;;;;;5022546;28;20470;-81
2023/06/14 03:27:03;;;;;;;0.50;0.37;;;16.30;99.90;;;;;;5022615;28;20447;-82
2023/06/14 03:29:30;;;;;;;0.50;0.40;;;16.20;99.90;;;;;;5028476;28;20465;-82
2023/06/14 03:32:02;;;;;;;0.50;0.40;;;16.20;99.90;;;;;;5030475;28;20437;-82
2023/06/14 03:34:28;;;;;;;0.50;0.40;;;16.20;99.90;;;;;;5024530;28;20533;-83
2023/06/14 03:36:55;;;;;;;0.50;0.33;;;16.10;99.90;;;;;;5023621;28;20470;-83
2023/06/14 03:39:22;;;;;;;0.50;0.40;;;16.10;99.90;;;;;;5020913;28;20827;-83
2023/06/14 03:41:51;;;;;;;0.50;0.40;;;16.00;99.90;;;;;;5028361;28;20474;-82
2023/06/14 03:44:19;;;;;;;0.50;0.40;;;16.00;99.90;;;;;;5020461;28;20530;-81
2023/06/14 03:46:46;;;;;;;0.50;0.40;;;16.00;99.90;;;;;;5020455;28;20453;-81
2023/06/14 03:49:13;;;;;;;0.50;0.40;;;16.00;99.90;;;;;;5020385;28;20558;-81
2023/06/14 03:51:40;;;;;;;0.50;0.40;;;16.00;99.90;;;;;;5020564;28;20532;-81
2023/06/14 03:54:07;;;;;;;1.07;1.00;;;16.10;99.90;;;;;;5020873;28;20442;-81
2023/06/14 03:56:35;;;;;;;0.50;0.40;;;16.10;99.90;;;;;;5018156;28;20443;-81
2023/06/14 03:59:03;;;;;;;0.50;0.40;;;16.10;99.90;;;;;;5015287;28;20481;-83
2023/06/14 04:01:31;;;;;;;0.50;0.40;;;16.10;99.90;;;;;;5011384;28;20474;-83
2023/06/14 04:03:58;;;;;;;1.47;0.83;;;16.10;99.90;;;;;;5021227;28;20477;-83
2023/06/14 04:06:31;;;;;;;1.07;0.93;;;16.20;99.90;;;;;;5020376;28;20443;-83
2023/06/14 04:09:03;;;;;;;0.60;0.50;;;16.20;99.90;;;;;;5028853;28;20448;-83
2023/06/14 04:11:31;;;;;;;0.50;0.40;;;16.20;99.90;;;;;;5027164;28;20439;-83
2023/06/14 04:13:58;;;;;;;0.50;0.40;;;16.20;99.90;;;;;;5028619;28;20449;-82
2023/06/14 04:16:27;;;;;;;0.50;0.40;;;16.30;99.90;;;;;;5012536;28;20910;-84
2023/06/14 04:18:55;;;;;;;0.50;0.40;;;16.30;99.90;;;;;;5015335;28;20534;-83
2023/06/14 04:21:23;;;;;;;0.50;0.40;;;16.30;99.90;;;;;;5021893;28;20473;-86
2023/06/14 04:23:52;;;;;;;0.50;0.40;;;16.30;99.90;;;;;;5032323;28;20450;-84
2023/06/14 04:26:20;;;;;;;0.50;0.37;;;16.30;99.90;;;;;;5031055;28;20442;-84
2023/06/14 04:28:47;;;;;;;0.50;0.40;;;16.30;99.90;;;;;;5014308;28;20974;-84
2023/06/14 04:31:16;;;;;;;0.50;0.30;;;16.30;99.90;;;;;;5013810;28;20447;-85
2023/06/14 04:33:46;;;;;;;0.50;0.40;;;16.40;99.90;;;;;;5027988;28;20545;-84
2023/06/14 04:36:13;;;;;;;0.50;0.40;;;16.40;99.90;;;;;;5015973;28;20497;-86
2023/06/14 04:38:41;;;;;;;0.50;0.40;;;16.40;99.90;;;;;;5023511;28;20427;-88
2023/06/14 04:41:11;;;;;;;0.50;0.40;;;16.40;99.90;;;;;;5034831;28;20466;-88
2023/06/14 04:43:39;;;;;;;0.60;0.50;;;16.50;99.90;;;;;;5021930;28;20450;-85
2023/06/14 04:46:09;;;;;;;0.50;0.37;;;16.50;99.90;;;;;;5021791;28;20534;-86
2023/06/14 04:48:36;;;;;;;0.50;0.30;;;16.50;99.90;;;;;;5026691;28;20522;-86
2023/06/14 04:51:06;;;;;;;0.50;0.40;;;16.60;99.90;;;;;;5025577;28;20473;-86
2023/06/14 04:53:33;;;;;;;0.50;0.40;;;16.60;99.90;;;;;;5014922;28;20443;-83
2023/06/14 04:56:02;;;;;;;1.27;1.17;;;16.60;99.90;;;;;;5012147;28;20442;-81
2023/06/14 04:58:29;;;;;;;0.50;0.40;;;16.70;99.90;;;;;;5013667;28;20941;-84
2023/06/14 05:00:58;;;;;;;0.50;0.40;;;16.70;99.90;;;;;;5026596;28;20547;-84
2023/06/14 05:03:26;;;;;;;0.50;0.40;;;16.80;99.90;;;;;;5015214;28;20451;-84
2023/06/14 05:05:54;;;;;;;3.90;0.60;;;16.80;99.90;;;;;;5014281;28;20862;-83
2023/06/14 05:08:24;;;;;;;7.37;1.10;;;16.80;99.90;;;;;;5024988;28;20988;-83
2023/06/14 05:10:52;;;;;;;0.60;0.50;;;16.80;99.90;;;;;;5026913;28;20562;-81
2023/06/14 05:13:20;;;;;;;0.50;0.40;;;16.90;99.90;;;;;;5017392;28;20443;-85
2023/06/14 05:15:47;;;;;;;2.10;1.20;;;17.00;99.90;;;;;;5024769;28;20443;-82
2023/06/14 05:18:14;;;;;;;0.50;0.40;;;17.00;99.90;;;;;;5018269;28;20432;-82
2023/06/14 05:20:42;;;;;;;1.90;0.73;;;17.10;99.90;;;;;;5019465;28;20463;-81
2023/06/14 05:23:14;;;;;;;1.83;1.10;;;17.10;99.90;;;;;;5019477;28;20485;-80
2023/06/14 05:25:43;;;;;;;0.60;0.47;;;17.20;99.90;;;;;;5018276;28;20450;-82
2023/06/14 05:28:10;;;;;;;0.60;0.57;;;17.30;99.90;;;;;;5035085;28;20445;-80
2023/06/14 05:30:39;;;;;;;0.80;0.50;;;17.30;99.90;;;;;;5037936;28;20548;-83
2023/06/14 05:33:05;;;;;;;3.33;2.40;;;17.40;99.90;;;;;;5039549;28;20438;-83
2023/06/14 05:35:32;;;;;;;0.50;0.40;;;17.40;99.90;;;;;;5053474;28;20787;-82
2023/06/14 05:37:59;;;;;;;0.60;0.53;;;17.50;99.90;;;;;;5053874;28;20441;-81
2023/06/14 05:40:26;;;;;;;10.60;1.80;;;17.60;99.90;;;;;;5040913;28;20470;-84
2023/06/14 05:42:54;;;;;;;0.50;0.30;;;17.70;99.90;;;;;;5034286;28;20510;-83
2023/06/14 05:45:21;;;;;;;0.50;0.40;;;17.80;99.90;;;;;;5020981;28;20463;-83
2023/06/14 05:47:48;;;;;;;0.50;0.37;;;18.00;99.90;;;;;;5028260;28;20446;-83
2023/06/14 05:50:15;;;;;;;0.50;0.40;;;18.10;99.90;;;;;;5022574;28;20467;-85
2023/06/14 05:52:42;;;;;;;0.50;0.40;;;18.20;99.90;;;;;;5019239;28;20497;-82
2023/06/14 05:55:11;;;;;;;0.93;0.80;;;18.40;99.90;;;;;;5016736;28;20993;-80
2023/06/14 05:57:40;;;;;;;0.77;0.60;;;18.60;99.90;;;;;;5017162;28;20446;-80
2023/06/14 06:00:14;;;;;;;3.07;1.43;;;18.70;99.90;;;;;;5018198;28;20474;-83
2023/06/14 06:02:41;;;;;;;2.43;2.30;;;18.70;99.90;;;;;;5017194;28;20478;-81
2023/06/14 06:05:08;;;;;;;0.50;0.40;;;18.80;99.90;;;;;;5018164;28;20490;-81
2023/06/14 06:07:35;;;;;;;0.80;0.80;;;19.00;99.90;;;;;;5015570;28;20572;-80
2023/06/14 06:10:02;;;;;;;0.83;0.60;;;19.10;99.90;;;;;;5015327;28;20550;-81
2023/06/14 06:12:28;;;;;;;0.90;0.53;;;19.20;99.90;;;;;;5008488;28;20437;-82
2023/06/14 06:14:56;;;;;;;0.50;0.30;;;19.40;99.90;;;;;;5016100;28;20439;-80
2023/06/14 06:17:24;;;;;;;0.50;0.40;;;19.60;99.90;;;;;;5014902;28;20442;-81
2023/06/14 06:19:51;;;;;;;0.50;0.30;;;19.60;95.70;;;;;;5015309;28;20842;-79
2023/06/14 06:22:18;;;;;;;0.67;0.60;;;19.70;98.80;;;;;;5016675;28;20476;-82
2023/06/14 06:24:45;;;;;;;1.30;0.80;;;19.90;98.30;;;;;;5013953;28;20437;-80
2023/06/14 06:27:13;;;;;;;0.60;0.50;;;20.10;96.30;;;;;;5015844;28;20942;-80
2023/06/14 06:29:40;;;;;;;0.50;0.40;;;20.10;93.80;;;;;;5015170;28;20579;-81
2023/06/14 06:32:07;;;;;;;0.50;0.30;;;20.20;95.10;;;;;;5016234;28;20507;-82
2023/06/14 06:34:37;;;;;;;1.47;1.10;;;20.20;93.60;;;;;;5015336;28;20501;-80
2023/06/14 06:37:04;;;;;;;3.63;2.10;;;20.40;93.50;;;;;;5030612;28;20848;-80
2023/06/14 06:39:30;;;;;;;0.67;0.50;;;20.60;91.80;;;;;;5005537;28;20459;-80
2023/06/14 06:41:57;;;;;;;1.20;0.50;;;20.60;90.60;;;;;;5012778;28;20507;-80
2023/06/14 06:44:24;;;;;;;1.03;0.70;;;20.70;89.60;;;;;;5013600;28;20501;-80
2023/06/14 06:46:51;;;;;;;0.73;0.73;;;21.10;87.40;;;;;;5013878;28;20447;-82
2023/06/14 06:49:18;;;;;;;2.43;1.17;;;21.40;84.90;;;;;;5025609;28;20553;-80
2023/06/14 06:52:00;;;;;;;1.33;0.73;;;21.70;83.90;;;;;;5033213;28;20439;-80
2023/06/14 06:54:27;;;;;;;0.50;0.40;;;22.10;81.40;;;;;;5034322;28;20438;-80
2023/06/14 06:56:54;;;;;;;0.50;0.40;;;22.60;79.60;;;;;;5032772;28;20537;-80
2023/06/14 06:59:21;;;;;;;1.27;0.80;;;23.30;80.30;;;;;;5033080;28;20458;-80
2023/06/14 07:01:47;;;;;;;0.53;0.37;;;23.80;73.30;;;;;;5033228;28;20482;-78
2023/06/14 07:04:15;;;;;;;0.67;0.67;;;23.70;71.30;;;;;;5032934;28;20442;-81
2023/06/14 07:06:42;;;;;;;1.03;0.50;;;23.40;69.60;;;;;;5019850;28;20791;-80
2023/06/14 07:09:12;;;;;;;0.60;0.40;;;23.30;70.50;;;;;;5013027;28;20979;-80
2023/06/14 07:11:39;;;;;;;0.80;0.53;;;23.60;69.20;;;;;;5013012;28;20440;-79
2023/06/14 07:14:06;;;;;;;0.70;0.63;;;23.20;69.10;;;;;;5013358;28;20804;-80
2023/06/14 07:16:33;;;;;;;0.73;0.70;;;23.00;68.90;;;;;;5012955;28;20466;-80
2023/06/14 07:19:00;;;;;;;0.60;0.40;;;23.00;69.20;;;;;;5018182;28;20528;-80
2023/06/14 07:21:27;;;;;;;0.60;0.40;;;22.90;68.80;;;;;;5025206;28;20499;-83
2023/06/14 07:23:54;;;;;;;0.60;0.50;;;23.10;69.20;;;;;;5018579;28;20561;-81
2023/06/14 07:26:22;;;;;;;1.33;0.90;;;23.20;68.40;;;;;;5016379;28;20439;-81
2023/06/14 07:28:50;;;;;;;0.60;0.47;;;23.40;69.30;;;;;;5016987;28;20427;-81
2023/06/14 07:31:19;;;;;;;0.73;0.73;;;23.40;67.90;;;;;;5015294;28;20555;-81
2023/06/14 07:33:46;;;;;;;1.37;0.90;;;23.60;68.00;;;;;;5021354;28;20442;-80
2023/06/14 07:36:13;;;;;;;0.60;0.40;;;24.00;66.90;;;;;;5013045;28;20891;-80
2023/06/14 07:38:40;;;;;;;4.50;2.73;;;24.40;67.20;;;;;;5013166;28;20872;-80
2023/06/14 07:41:07;;;;;;;1.13;0.60;;;24.50;65.30;;;;;;5013070;28;20927;-80
2023/06/14 07:43:35;;;;;;;0.70;0.50;;;25.00;64.70;;;;;;5012954;28;20566;-80
2023/06/14 07:46:02;;;;;;;1.13;0.50;;;25.00;64.00;;;;;;5012803;28;20446;-80
2023/06/14 07:48:29;;;;;;;0.80;0.60;;;25.00;63.60;;;;;;5012327;28;20445;-80
2023/06/14 07:50:56;;;;;;;0.70;0.50;;;25.50;63.20;;;;;;5017480;28;20550;-80
2023/06/14 07:53:23;;;;;;;0.50;0.40;;;25.30;61.50;;;;;;5012578;28;20938;-81
2023/06/14 07:55:50;;;;;;;0.63;0.60;;;25.50;64.40;;;;;;5012368;28;20438;-80
2023/06/14 07:58:17;;;;;;;0.60;0.40;;;26.70;62.90;;;;;;5012322;28;20458;-80
2023/06/14 08:00:46;;;;;;;0.80;0.80;;;26.70;59.40;;;;;;5012156;28;20486;-80
2023/06/14 08:03:12;;;;;;;0.60;0.50;;;27.20;59.30;;;;;;5012379;28;20565;-80
2023/06/14 08:05:39;;;;;;;0.83;0.70;;;27.70;60.00;;;;;;5012332;28;20443;-82
2023/06/14 08:08:06;;;;;;;0.50;0.40;;;28.10;58.40;;;;;;5012341;28;20497;-80
2023/06/14 08:10:33;;;;;;;0.70;0.40;;;28.60;58.10;;;;;;5012320;28;20541;-80
2023/06/14 08:13:00;;;;;;;0.50;0.30;;;28.90;57.30;;;;;;5013119;28;20432;-81
2023/06/14 08:15:26;;;;;;;0.50;0.30;;;29.50;56.10;;;;;;5012330;28;20529;-80
2023/06/14 08:17:55;;;;;;;0.50;0.37;;;30.10;55.20;;;;;;5012080;28;20438;-79
2023/06/14 08:20:21;;;;;;;0.50;0.40;;;29.50;53.90;;;;;;5011755;28;20462;-80
2023/06/14 08:22:48;;;;;;;0.50;0.40;;;28.80;54.40;;;;;;5012041;28;20558;-80
2023/06/14 08:25:15;;;;;;;0.50;0.40;;;28.30;54.90;;;;;;5011795;28;20964;-80
2023/06/14 08:27:42;;;;;;;0.50;0.30;;;28.00;55.40;;;;;;5012097;28;20539;-80
2023/06/14 08:30:10;;;;;;;0.50;0.30;;;27.60;55.40;;;;;;5012119;28;20459;-81
2023/06/14 08:32:37;;;;;;;0.50;0.40;;;28.30;55.90;;;;;;5024134;28;20963;-81
2023/06/14 08:35:07;;;;;;;0.90;0.80;;;28.70;55.80;;;;;;5031843;28;20520;-81
2023/06/14 08:37:34;;;;;;;0.60;0.40;;;29.30;54.90;;;;;;5033999;28;20431;-80
2023/06/14 08:40:01;;;;;;;1.00;0.87;;;29.70;53.40;;;;;;5031485;28;20461;-81
2023/06/14 08:42:28;;;;;;;2.00;0.50;;;29.30;52.90;;;;;;5031476;28;20572;-80
2023/06/14 08:44:54;;;;;;;0.60;0.50;;;28.60;53.10;;;;;;5031776;28;20549;-78
2023/06/14 08:47:24;;;;;;;0.50;0.40;;;27.80;54.00;;;;;;5031935;28;20448;-80
2023/06/14 08:49:51;;;;;;;0.50;0.40;;;26.90;55.00;;;;;;5035484;28;20458;-79
2023/06/14 08:52:22;;;;;;;0.83;0.73;;;26.70;55.90;;;;;;5035366;28;20430;-80
2023/06/14 08:54:50;;;;;;;0.50;0.40;;;26.90;55.90;;;;;;5035025;28;20480;-80
2023/06/14 08:57:20;;;;;;;0.60;0.50;;;26.90;55.50;;;;;;5035816;28;20438;-80
2023/06/14 08:59:52;;;;;;;0.73;0.73;;;26.60;56.20;;;;;;5035263;28;20519;-79
2023/06/14 09:02:19;;;;;;;0.50;0.30;;;27.00;57.70;;;;;;5035373;28;20441;-81
2023/06/14 09:04:46;;;;;;;0.50;0.30;;;28.10;56.70;;;;;;5035275;28;20465;-81
2023/06/14 09:07:13;;;;;;;0.50;0.30;;;29.30;55.50;;;;;;5035291;28;20956;-81
2023/06/14 09:09:42;;;;;;;1.27;1.27;;;29.50;51.90;;;;;;5035354;28;20458;-80
2023/06/14 09:12:12;;;;;;;0.70;0.40;;;29.30;51.20;;;;;;5035360;28;20455;-80
2023/06/14 09:14:41;;;;;;;0.50;0.40;;;29.00;51.60;;;;;;5033091;28;20470;-82
2023/06/14 09:17:08;;;;;;;0.70;0.50;;;29.60;52.10;;;;;;5015718;28;20815;-80
2023/06/14 09:19:36;;;;;;;0.60;0.60;;;29.40;49.50;;;;;;5015448;28;20458;-81
2023/06/14 09:22:05;;;;;;;0.50;0.30;;;28.90;50.90;;;;;;5015416;28;20958;-82
2023/06/14 09:24:31;;;;;;;2.00;1.90;;;28.90;51.60;;;;;;5015061;28;20622;-81
2023/06/14 09:27:00;;;;;;;0.50;0.30;;;29.00;50.50;;;;;;5015072;28;20806;-80
2023/06/14 09:29:27;;;;;;;0.50;0.30;;;29.20;50.80;;;;;;5015587;28;20994;-81
2023/06/14 09:31:54;;;;;;;0.50;0.30;;;30.10;51.50;;;;;;5014959;28;20454;-80
2023/06/14 09:34:23;;;;;;;0.50;0.30;;;30.30;49.90;;;;;;5015506;28;20862;-80
2023/06/14 09:36:50;;;;;;;0.60;0.53;;;31.00;49.70;;;;;;5014982;28;20791;-80
2023/06/14 09:39:18;;;;;;;0.87;0.80;;;30.80;48.80;;;;;;5015000;28;20459;-80
2023/06/14 09:41:45;;;;;;;0.50;0.30;;;29.90;47.60;;;;;;5015235;28;20811;-81
2023/06/14 09:44:13;;;;;;;0.50;0.30;;;29.70;51.40;;;;;;5015001;28;20474;-80
2023/06/14 09:46:40;;;;;;;0.50;0.30;;;30.90;51.90;;;;;;5014751;28;20535;-81
2023/06/14 09:49:08;;;;;;;0.50;0.30;;;32.00;49.60;;;;;;5014797;28;20506;-81
2023/06/14 09:51:37;;;;;;;0.50;0.50;;;32.70;48.40;;;;;;5014663;28;20455;-81
2023/06/14 09:54:05;;;;;;;0.80;0.73;;;33.10;46.50;;;;;;5014448;28;20498;-80
2023/06/14 09:56:35;;;;;;;0.77;0.57;;;32.40;46.00;;;;;;5015464;28;20447;-80
2023/06/14 09:59:07;;;;;;;0.50;0.30;;;31.30;46.20;;;;;;5032088;28;21013;-80
2023/06/14 10:01:37;;;;;;;4.03;1.53;;;30.20;47.90;;;;;;5034874;28;20449;-80
2023/06/14 10:04:06;;;;;;;0.60;0.43;;;30.80;48.70;;;;;;5034105;28;20465;-80
2023/06/14 10:06:37;;;;;;;0.50;0.40;;;30.40;46.80;;;;;;5034251;28;20533;-80
2023/06/14 10:09:05;;;;;;;0.50;0.40;;;29.70;47.40;;;;;;5034275;28;20446;-78
2023/06/14 10:11:32;;;;;;;0.50;0.30;;;29.60;49.10;;;;;;5034119;28;20442;-80
2023/06/14 10:14:00;;;;;;;0.80;0.50;;;30.30;50.10;;;;;;5034838;28;20435;-80
2023/06/14 10:16:32;;;;;;;0.50;0.30;;;30.20;48.10;;;;;;5033768;28;20444;-80
2023/06/14 10:19:08;;;;;;;0.50;0.30;;;30.60;48.40;;;;;;5034403;28;20497;-80
2023/06/14 10:21:43;;;;;;;0.50;0.30;;;30.60;48.00;;;;;;5035480;28;20438;-81
2023/06/14 10:24:13;;;;;;;0.50;0.30;;;31.30;48.00;;;;;;5033739;28;20473;-80
2023/06/14 10:26:52;;;;;;;0.60;0.40;;;32.00;48.40;;;;;;5033849;28;20443;-81
2023/06/14 10:29:19;;;;;;;0.50;0.40;;;31.90;45.00;;;;;;5033723;28;20472;-79
2023/06/14 10:31:47;;;;;;;0.50;0.30;;;31.90;45.10;;;;;;5033853;28;20438;-80
2023/06/14 10:34:24;;;;;;;1.23;0.50;;;32.20;45.30;;;;;;5033808;28;20434;-80
2023/06/14 10:37:03;;;;;;;0.50;0.30;;;32.60;45.50;;;;;;5034066;28;20448;-80
2023/06/14 10:39:30;;;;;;;0.90;0.77;;;31.50;45.40;;;;;;5033577;28;20458;-80
2023/06/14 10:41:58;;;;;;;0.50;0.50;;;31.70;45.40;;;;;;5020124;28;20443;-82
2023/06/14 10:44:42;;;;;;;0.50;0.40;;;31.30;45.60;;;;;;5013855;28;20589;-78
2023/06/14 10:47:11;;;;;;;0.60;0.40;;;30.40;45.80;;;;;;5013861;28;20465;-79
2023/06/14 10:49:41;;;;;;;0.50;0.30;;;30.00;47.70;;;;;;5013608;28;20467;-80
2023/06/14 10:52:11;;;;;;;0.50;0.30;;;30.20;47.60;;;;;;5014447;28;20931;-80
2023/06/14 10:54:38;;;;;;;11.27;0.67;;;30.30;47.00;;;;;;5013608;28;20455;-80
2023/06/14 10:57:08;;;;;;;0.50;0.40;;;31.10;46.50;;;;;;5013688;28;20475;-80
2023/06/14 10:59:37;;;;;;;4.97;0.80;;;30.90;46.70;;;;;;5013450;28;20466;-80
2023/06/14 11:02:46;;;;;;;1.53;1.17;;;31.10;46.10;;;;;;5013832;28;20439;-80
2023/06/14 11:05:16;;;;;;;0.50;0.30;;;30.40;46.80;;;;;;5013725;28;20439;-80
2023/06/14 11:07:56;;;;;;;0.77;0.60;;;30.10;47.50;;;;;;5013323;28;20522;-81
2023/06/14 11:10:31;;;;;;;0.50;0.40;;;30.40;47.70;;;;;;5012994;28;20493;-81
2023/06/14 11:12:58;;;;;;;0.60;0.50;;;30.10;47.30;;;;;;5028249;28;20532;-80
2023/06/14 11:15:30;;;;;;;0.50;0.30;;;29.50;48.30;;;;;;5018114;28;20446;-81
2023/06/14 11:17:57;;;;;;;0.50;0.30;;;29.60;48.80;;;;;;5014739;28;20439;-80
2023/06/14 11:20:28;;;;;;;0.60;0.60;;;30.00;48.70;;;;;;5013253;28;20533;-81
2023/06/14 11:22:55;;;;;;;0.60;0.60;;;30.60;48.20;;;;;;5013155;28;20522;-80
2023/06/14 11:25:22;;;;;;;0.50;0.30;;;30.40;47.50;;;;;;5012911;28;20534;-78
2023/06/14 11:27:50;;;;;;;0.50;0.30;;;30.30;48.10;;;;;;5013382;28;21006;-80
2023/06/14 11:30:18;;;;;;;0.50;0.30;;;30.20;48.70;;;;;;5012955;28;20983;-81
2023/06/14 11:32:47;;;;;;;0.50;0.30;;;30.70;49.60;;;;;;5015340;28;20435;-80
2023/06/14 11:35:14;;;;;;;0.70;0.60;;;31.90;48.40;;;;;;5016490;28;20508;-81
2023/06/14 11:37:44;;;;;;;0.50;0.40;;;32.30;46.60;;;;;;5013365;28;20503;-80
2023/06/14 11:40:12;;;;;;;5.60;0.50;;;31.90;46.50;;;;;;5013157;28;20466;-80
2023/06/14 11:42:41;;;;;;;0.50;0.40;;;31.20;46.40;;;;;;5013815;28;20526;-80
2023/06/14 11:45:10;;;;;;;0.50;0.40;;;30.60;47.90;;;;;;5013044;28;20993;-80
2023/06/14 11:47:38;;;;;;;0.50;0.30;;;30.00;48.10;;;;;;5012724;28;20958;-81
2023/06/14 11:50:06;;;;;;;0.70;0.50;;;29.60;49.40;;;;;;5012786;28;20549;-80
2023/06/14 11:52:33;;;;;;;0.60;0.40;;;29.10;49.00;;;;;;5013404;28;20446;-81
2023/06/14 11:55:04;;;;;;;0.50;0.30;;;28.70;49.30;;;;;;5013096;28;20428;-80
2023/06/14 11:57:31;;;;;;;0.50;0.30;;;28.90;49.70;;;;;;5012625;28;20471;-80
2023/06/14 11:59:58;;;;;;;0.50;0.40;;;29.40;50.10;;;;;;5012961;28;20475;-81
2023/06/14 12:02:27;;;;;;;0.50;0.30;;;29.80;49.10;;;;;;5013266;28;20446;-80
2023/06/14 12:04:55;;;;;;;0.60;0.50;;;30.30;51.00;;;;;;5012175;28;21096;-78
2023/06/14 12:07:23;;;;;;;0.50;0.50;;;31.40;49.80;;;;;;5012067;28;20505;-83
2023/06/14 12:10:08;;;;;;;0.50;0.40;;;31.40;47.80;;;;;;5012282;28;20477;-79
2023/06/14 12:12:37;;;;;;;0.50;0.40;;;31.20;48.00;;;;;;5012101;28;20478;-80
2023/06/14 12:15:05;;;;;;;0.50;0.40;;;30.90;48.30;;;;;;5012057;28;20953;-81
2023/06/14 12:17:34;;;;;;;0.50;0.40;;;31.10;49.60;;;;;;5012349;28;20450;-82
2023/06/14 12:20:10;;;;;;;0.53;0.50;;;31.90;49.90;;;;;;5011908;28;20469;-80
2023/06/14 12:22:37;;;;;;;0.53;0.37;;;31.80;47.20;;;;;;5011179;28;20854;-81
2023/06/14 12:25:09;;;;;;;0.50;0.30;;;31.70;48.00;;;;;;5011914;28;20479;-80
2023/06/14 12:27:36;;;;;;;0.50;0.30;;;31.60;47.40;;;;;;5011759;28;20435;-80
2023/06/14 12:30:05;;;;;;;0.50;0.30;;;31.30;48.20;;;;;;5025650;28;20466;-80
2023/06/14 12:32:32;;;;;;;0.50;0.40;;;31.90;48.50;;;;;;5034032;28;20470;-80
2023/06/14 12:34:58;;;;;;;0.50;0.40;;;32.10;47.10;;;;;;5033635;28;20441;-81
2023/06/14 12:37:25;;;;;;;0.50;0.40;;;31.60;47.70;;;;;;5033507;28;20541;-83
2023/06/14 12:39:52;;;;;;;0.50;0.30;;;31.80;48.40;;;;;;5006783;28;20504;-81
2023/06/14 12:42:20;;;;;;;0.70;0.60;;;32.40;48.00;;;;;;5012968;28;20455;-81
2023/06/14 12:44:47;;;;;;;0.60;0.50;;;32.70;46.60;;;;;;5012142;28;20916;-80
2023/06/14 12:47:14;;;;;;;1.10;1.10;;;32.10;47.20;;;;;;5011801;28;21009;-81
2023/06/14 12:49:42;;;;;;;0.50;0.30;;;32.10;48.00;;;;;;5029755;28;20544;-81
2023/06/14 12:52:09;;;;;;;0.80;0.50;;;32.20;48.20;;;;;;5031710;28;20446;-82
2023/06/14 12:54:36;;;;;;;0.50;0.30;;;33.00;48.20;;;;;;5031205;28;20945;-82